Flight Track Log - Related Links

Times and Time Zones

All times are in EDT time to prevent confusion due to time zone crossing. See the AIP5404 flight status page for this flight to view local times or setup timezone preferences in your user account.

Time Position Orientation Groundspeed Altitude Reporting Facility
EDT Latitude Longitude Course Direction KTS MPH feet Rate Location/Type
Thu 01:31:08 AM 44.0508 -103.0636 41° Northeast 117 135 3,800  Level Denver Center
Thu 01:32:15 AM 44.0797 -103.0289 99° East 163 188 5,900 2,031 Climbing Denver Center
Thu 01:33:15 AM 44.0725 -102.9661 100° East 170 196 8,100 2,089 Climbing Denver Center
Thu 01:34:07 AM 44.0661 -102.9147 94° East 203 234 9,800 2,196 Climbing Denver Center
Thu 01:35:07 AM 44.0625 -102.8450 100° East 171 197 12,200 2,132 Climbing Denver Center
Thu 01:36:08 AM 44.0533 -102.7706 99° East 176 203 14,100 1,770 Climbing Denver Center
Thu 01:37:09 AM 44.0447 -102.6928 97° East 195 224 15,800 1,835 Climbing Denver Center
Thu 01:38:09 AM 44.0381 -102.6147 94° East 201 231 17,800 1,934 Climbing Denver Center
Thu 01:39:10 AM 44.0342 -102.5383 99° East 201 231 19,700 1,525 Climbing Denver Center
Thu 01:40:11 AM 44.0253 -102.4594 102° East 199 229 20,900 639 Climbing Denver Center
Thu 01:41:12 AM 44.0114 -102.3661 96° East 237 273 21,000 50 Climbing Denver Center
Thu 01:42:12 AM 44.0036 -102.2581 95° East 281 323 21,000 50 Level Denver Center
Thu 01:43:13 AM 43.9969 -102.1483 95° East 287 330 21,100  Climbing Denver Center
Thu 01:44:14 AM 43.9900 -102.0356 94° East 290 334 21,000 -50 Descending Denver Center
Thu 01:45:14 AM 43.9844 -101.9206 94° East 295 339 21,000 -50 Level Denver Center
Thu 01:46:15 AM 43.9786 -101.8047 93° East 299 344 20,900 -639 Descending Denver Center
Thu 01:47:16 AM 43.9739 -101.6889 92° East 301 346 19,700 -984 Descending Denver Center
Thu 01:48:17 AM 43.9714 -101.5786 89° East 294 338 18,900 -347 Descending Denver Center
Thu 01:49:17 AM 43.9733 -101.4728 93° East 285 328 19,000 50 Climbing Denver Center
Thu 01:50:18 AM 43.9689 -101.3667 96° East 277 319 19,000  Level Denver Center
Thu 01:51:19 AM 43.9608 -101.2614 94° East 275 316 19,000  Level Denver Center
Thu 01:52:19 AM 43.9550 -101.1342 93° East 276 318 19,000  Level Denver Center
Thu 01:53:20 AM 43.9511 -101.0269 92° East 277 319 19,000  Level Denver Center
Thu 01:54:29 AM 43.9481 -100.9211 95° East 280 322 19,000  Level Minneapolis Center
Thu 01:55:29 AM 43.9408 -100.8092 94° East 285 328 19,000  Level Minneapolis Center
Thu 01:56:29 AM 43.9347 -100.6950 98° East 289 333 19,000  Level Minneapolis Center
Thu 01:57:30 AM 43.9239 -100.5819 96° East 292 336 19,000  Level Minneapolis Center
Thu 01:58:30 AM 43.9156 -100.4686 97° East 294 338 19,000  Level Minneapolis Center
Thu 01:59:31 AM 43.9036 -100.3317 96° East 297 342 19,000 -50 Level Minneapolis Center
Thu 02:00:31 AM 43.8950 -100.2228 96° East 293 337 18,900  Descending Minneapolis Center
Thu 02:01:31 AM 43.8867 -100.1103 96° East 292 336 19,000  Climbing Minneapolis Center
Thu 02:02:32 AM 43.8778 -99.9981 96° East 293 337 18,900 -694 Descending Minneapolis Center
Thu 02:03:32 AM 43.8689 -99.8856 96° East 293 337 17,600 -942 Descending Minneapolis Center
Thu 02:04:33 AM 43.8594 -99.7700 97° East 296 341 17,000 -347 Descending Minneapolis Center
Thu 02:05:33 AM 43.8503 -99.6594 99° East 296 341 16,900 -50 Descending Minneapolis Center
Thu 02:06:34 AM 43.8386 -99.5525 98° East 289 333 16,900 -347 Level Minneapolis Center
Thu 02:07:34 AM 43.8269 -99.4431 96° East 288 331 16,200 -942 Descending Minneapolis Center
Thu 02:08:35 AM 43.8186 -99.3331 95° East 288 331 15,000 -595 Descending Minneapolis Center
Thu 02:09:35 AM 43.8119 -99.2306 96° East 278 320 15,000  Level Minneapolis Center
Thu 02:10:35 AM 43.8036 -99.1286 96° East 270 311 15,000 50 Level Minneapolis Center
Thu 02:11:36 AM 43.7950 -99.0233 97° East 272 313 15,100 50 Climbing Minneapolis Center
Thu 02:12:36 AM 43.7853 -98.9142 97° East 281 323 15,100  Level Minneapolis Center
Thu 02:13:37 AM 43.7756 -98.8028 97° East 288 331 15,100  Level Minneapolis Center
Thu 02:14:37 AM 43.7661 -98.6911 96° East 291 335 15,100  Level Minneapolis Center
Thu 02:15:38 AM 43.7581 -98.5889 96° East 291 335 15,100 -50 Level Minneapolis Center
Thu 02:16:38 AM 43.7494 -98.4786 98° East 288 331 15,000 -50 Descending Minneapolis Center
Thu 02:17:39 AM 43.7389 -98.3686 97° East 286 329 15,000  Level Minneapolis Center
Thu 02:18:39 AM 43.7292 -98.2597 98° East 284 327 15,000  Level Minneapolis Center
Thu 02:19:40 AM 43.7186 -98.1525 98° East 281 323 15,000 50 Level Minneapolis Center
Thu 02:20:40 AM 43.7075 -98.0494 97° East 274 315 15,100  Climbing Minneapolis Center
Thu 02:21:41 AM 43.6983 -97.9453 95° East 271 312 15,000 -694 Descending Minneapolis Center
Thu 02:22:41 AM 43.6914 -97.8358 93° East 276 318 13,700 -1,289 Descending Minneapolis Center
Thu 02:23:42 AM 43.6875 -97.7264 92° East 280 322 12,400 -1,190 Descending Minneapolis Center
Thu 02:24:42 AM 43.6842 -97.6158 96° East 283 326 11,300 -1,050 Descending Minneapolis Center
Thu 02:25:42 AM 43.6764 -97.5064 101° East 282 325 10,300 -992 Descending Minneapolis Center
Thu 02:26:43 AM 43.6619 -97.3992 101° East 281 323 9,300 -843 Descending Minneapolis Center
Thu 02:27:43 AM 43.6467 -97.2922 99° East 280 322 8,600 -893 Descending Minneapolis Center
Thu 02:28:44 AM 43.6344 -97.1850 99° East 280 322 7,500 -1,240 Descending Minneapolis Center
Thu 02:29:44 AM 43.6222 -97.0822 97° East 277 319 6,100 -1,190 Descending Minneapolis Center
Thu 02:30:45 AM 43.6153 -97.0017 92° East 244 281 5,100 -595 Descending Minneapolis Center
Thu 02:31:45 AM 43.6136 -96.9275 94° East 210 242 4,900 -500 Descending Minneapolis Center
Thu 02:32:45 AM 43.6100 -96.8564 89° East 193 222 4,100 -496 Descending Minneapolis Center
Thu 02:33:46 AM 43.6108 -96.8031 82° East 167 192 3,900 -298 Descending Minneapolis Center
Thu 02:34:46 AM 43.6156 -96.7575 242° Southwest 148 170 3,500 -496 Descending Minneapolis Center
Thu 02:35:47 AM 43.6058 -96.7828 242° Southwest 174 200 2,900 -590 Descending Minneapolis Center

Login

Don't have an account? Register now (free) for customized features, flight alerts, and more!